sensor_id;sensor_type;location;lat;lon;timestamp;pressure;altitude;pressure_sealevel;temperature;humidity
54308;BME280;40208;39.778;2.710;2023-02-20T00:01:12;102533.09;;;7.77;100.00
54308;BME280;40208;39.778;2.710;2023-02-20T00:03:56;102527.84;;;7.74;100.00
54308;BME280;40208;39.778;2.710;2023-02-20T00:06:41;102531.31;;;7.84;100.00
54308;BME280;40208;39.778;2.710;2023-02-20T00:09:26;102529.59;;;7.77;100.00
54308;BME280;40208;39.778;2.710;2023-02-20T00:12:11;102535.84;;;7.60;100.00
54308;BME280;40208;39.778;2.710;2023-02-20T00:14:56;102531.41;;;7.61;100.00
54308;BME280;40208;39.778;2.710;2023-02-20T00:17:41;102539.41;;;7.50;100.00
54308;BME280;40208;39.778;2.710;2023-02-20T00:20:26;102541.19;;;7.42;100.00
54308;BME280;40208;39.778;2.710;2023-02-20T00:53:33;102530.69;;;7.23;100.00
54308;BME280;40208;39.778;2.710;2023-02-20T00:56:18;102525.41;;;7.23;100.00
54308;BME280;40208;39.778;2.710;2023-02-20T00:59:03;102518.38;;;7.29;100.00
54308;BME280;40208;39.778;2.710;2023-02-20T01:01:48;102511.34;;;7.15;100.00
54308;BME280;40208;39.778;2.710;2023-02-20T01:04:32;102523.69;;;7.19;100.00
54308;BME280;40208;39.778;2.710;2023-02-20T01:07:17;102513.97;;;7.20;100.00
54308;BME280;40208;39.778;2.710;2023-02-20T01:10:02;102514.84;;;7.20;100.00
54308;BME280;40208;39.778;2.710;2023-02-20T01:12:47;102518.41;;;7.13;100.00
54308;BME280;40208;39.778;2.710;2023-02-20T01:15:32;102512.28;;;7.05;100.00
54308;BME280;40208;39.778;2.710;2023-02-20T01:18:17;102517.56;;;6.99;100.00
54308;BME280;40208;39.778;2.710;2023-02-20T01:21:02;102507.88;;;7.01;100.00
54308;BME280;40208;39.778;2.710;2023-02-20T01:23:46;102507.91;;;6.89;100.00
54308;BME280;40208;39.778;2.710;2023-02-20T01:26:31;102507.91;;;6.84;100.00
54308;BME280;40208;39.778;2.710;2023-02-20T01:29:16;102505.28;;;6.73;100.00
54308;BME280;40208;39.778;2.710;2023-02-20T01:32:01;102500.91;;;6.74;100.00
54308;BME280;40208;39.778;2.710;2023-02-20T01:34:46;102490.34;;;6.71;100.00
54308;BME280;40208;39.778;2.710;2023-02-20T01:37:31;102492.13;;;6.61;100.00
54308;BME280;40208;39.778;2.710;2023-02-20T01:40:17;102491.25;;;6.50;100.00
54308;BME280;40208;39.778;2.710;2023-02-20T01:43:03;102485.97;;;6.54;100.00
54308;BME280;40208;39.778;2.710;2023-02-20T01:45:47;102479.81;;;6.57;100.00
54308;BME280;40208;39.778;2.710;2023-02-20T01:48:32;102477.19;;;6.49;100.00
54308;BME280;40208;39.778;2.710;2023-02-20T01:51:17;102477.19;;;6.46;100.00
54308;BME280;40208;39.778;2.710;2023-02-20T01:54:03;102472.78;;;6.50;100.00
54308;BME280;40208;39.778;2.710;2023-02-20T01:56:50;102473.66;;;6.61;100.00
54308;BME280;40208;39.778;2.710;2023-02-20T01:59:35;102466.63;;;6.58;100.00
54308;BME280;40208;39.778;2.710;2023-02-20T02:02:23;102467.50;;;6.65;100.00
54308;BME280;40208;39.778;2.710;2023-02-20T02:05:08;102465.72;;;6.67;100.00
54308;BME280;40208;39.778;2.710;2023-02-20T02:07:54;102456.97;;;6.57;100.00
54308;BME280;40208;39.778;2.710;2023-02-20T02:10:48;102466.63;;;6.60;100.00
54308;BME280;40208;39.778;2.710;2023-02-20T02:13:36;102459.59;;;6.54;100.00
54308;BME280;40208;39.778;2.710;2023-02-20T02:37:04;102444.69;;;6.24;100.00
54308;BME280;40208;39.778;2.710;2023-02-20T02:39:58;102433.22;;;6.33;100.00
54308;BME280;40208;39.778;2.710;2023-02-20T03:18:59;102426.16;;;5.86;100.00
54308;BME280;40208;39.778;2.710;2023-02-20T03:21:45;102419.16;;;5.80;100.00
54308;BME280;40208;39.778;2.710;2023-02-20T03:24:31;102413.88;;;5.83;100.00
54308;BME280;40208;39.778;2.710;2023-02-20T04:00:51;102416.50;;;5.79;100.00
54308;BME280;40208;39.778;2.710;2023-02-20T04:03:39;102418.25;;;5.78;100.00
54308;BME280;40208;39.778;2.710;2023-02-20T04:06:25;102417.38;;;5.67;100.00
54308;BME280;40208;39.778;2.710;2023-02-20T04:09:13;102413.91;;;5.82;100.00
54308;BME280;40208;39.778;2.710;2023-02-20T04:12:02;102423.53;;;5.90;100.00
54308;BME280;40208;39.778;2.710;2023-02-20T04:14:49;102415.66;;;5.77;100.00
54308;BME280;40208;39.778;2.710;2023-02-20T04:17:39;102413.88;;;5.92;100.00
54308;BME280;40208;39.778;2.710;2023-02-20T04:20:25;102413.03;;;5.93;100.00
54308;BME280;40208;39.778;2.710;2023-02-20T04:23:18;102404.22;;;5.76;100.00
54308;BME280;40208;39.778;2.710;2023-02-20T04:26:21;102410.34;;;5.73;100.00
54308;BME280;40208;39.778;2.710;2023-02-20T04:59:27;102417.38;;;5.58;100.00
54308;BME280;40208;39.778;2.710;2023-02-20T05:02:12;102414.75;;;5.70;100.00
54308;BME280;40208;39.778;2.710;2023-02-20T05:04:57;102423.53;;;5.66;100.00
54308;BME280;40208;39.778;2.710;2023-02-20T05:07:42;102423.50;;;5.55;100.00
54308;BME280;40208;39.778;2.710;2023-02-20T05:10:27;102427.00;;;5.49;100.00
54308;BME280;40208;39.778;2.710;2023-02-20T05:13:12;102426.97;;;5.43;100.00
54308;BME280;40208;39.778;2.710;2023-02-20T05:15:57;102433.97;;;5.32;100.00
54308;BME280;40208;39.778;2.710;2023-02-20T05:18:42;102426.97;;;5.37;100.00
54308;BME280;40208;39.778;2.710;2023-02-20T05:21:27;102437.44;;;5.26;100.00
54308;BME280;40208;39.778;2.710;2023-02-20T05:24:30;102451.47;;;5.21;100.00
54308;BME280;40208;39.778;2.710;2023-02-20T05:27:16;102448.81;;;5.16;100.00
54308;BME280;40208;39.778;2.710;2023-02-20T05:30:01;102449.75;;;5.20;100.00
54308;BME280;40208;39.778;2.710;2023-02-20T05:32:45;102434.78;;;5.17;100.00
54308;BME280;40208;39.778;2.710;2023-02-20T05:35:30;102445.31;;;5.14;100.00
54308;BME280;40208;39.778;2.710;2023-02-20T05:38:16;102443.53;;;5.12;100.00
54308;BME280;40208;39.778;2.710;2023-02-20T05:41:01;102438.34;;;5.22;100.00
54308;BME280;40208;39.778;2.710;2023-02-20T05:43:46;102451.47;;;5.16;100.00
54308;BME280;40208;39.778;2.710;2023-02-20T05:46:31;102450.56;;;5.08;100.00
54308;BME280;40208;39.778;2.710;2023-02-20T05:49:16;102451.41;;;5.10;100.00
54308;BME280;40208;39.778;2.710;2023-02-20T05:52:01;102458.50;;;5.22;100.00
54308;BME280;40208;39.778;2.710;2023-02-20T05:54:47;102452.38;;;5.29;100.00
54308;BME280;40208;39.778;2.710;2023-02-20T05:57:32;102455.94;;;5.39;100.00
54308;BME280;40208;39.778;2.710;2023-02-20T06:00:17;102457.66;;;5.30;100.00
54308;BME280;40208;39.778;2.710;2023-02-20T06:03:06;102468.16;;;5.23;100.00
54308;BME280;40208;39.778;2.710;2023-02-20T06:05:51;102472.50;;;5.15;100.00
54308;BME280;40208;39.778;2.710;2023-02-20T06:08:39;102477.75;;;5.15;100.00
54308;BME280;40208;39.778;2.710;2023-02-20T06:11:24;102480.38;;;5.10;100.00
54308;BME280;40208;39.778;2.710;2023-02-20T06:14:09;102488.28;;;5.12;100.00
54308;BME280;40208;39.778;2.710;2023-02-20T06:16:55;102486.53;;;5.10;100.00
54308;BME280;40208;39.778;2.710;2023-02-20T06:19:40;102488.22;;;4.99;100.00
54308;BME280;40208;39.778;2.710;2023-02-20T06:22:25;102494.34;;;4.97;100.00
54308;BME280;40208;39.778;2.710;2023-02-20T06:25:10;102493.41;;;4.88;100.00
54308;BME280;40208;39.778;2.710;2023-02-20T06:27:55;102496.03;;;4.85;100.00
54308;BME280;40208;39.778;2.710;2023-02-20T06:30:39;102498.75;;;4.96;100.00
54308;BME280;40208;39.778;2.710;2023-02-20T06:33:24;102491.69;;;4.92;100.00
54308;BME280;40208;39.778;2.710;2023-02-20T06:36:16;102501.28;;;4.84;100.00
54308;BME280;40208;39.778;2.710;2023-02-20T06:39:02;102505.53;;;4.65;100.00
54308;BME280;40208;39.778;2.710;2023-02-20T06:41:47;102520.34;;;4.52;100.00
54308;BME280;40208;39.778;2.710;2023-02-20T06:44:32;102511.63;;;4.58;100.00
54308;BME280;40208;39.778;2.710;2023-02-20T06:47:16;102519.59;;;4.65;100.00
54308;BME280;40208;39.778;2.710;2023-02-20T06:50:02;102519.66;;;4.75;100.00
54308;BME280;40208;39.778;2.710;2023-02-20T06:52:47;102523.09;;;4.69;100.00
54308;BME280;40208;39.778;2.710;2023-02-20T06:55:32;102521.34;;;4.68;100.00
54308;BME280;40208;39.778;2.710;2023-02-20T06:58:17;102532.72;;;4.67;100.00
54308;BME280;40208;39.778;2.710;2023-02-20T07:01:04;102538.00;;;4.65;100.00
54308;BME280;40208;39.778;2.710;2023-02-20T07:03:49;102534.44;;;4.60;100.00
54308;BME280;40208;39.778;2.710;2023-02-20T07:06:34;102542.38;;;4.66;100.00
54308;BME280;40208;39.778;2.710;2023-02-20T07:09:21;102538.03;;;4.70;100.00
54308;BME280;40208;39.778;2.710;2023-02-20T07:12:06;102538.03;;;4.73;100.00
54308;BME280;40208;39.778;2.710;2023-02-20T07:14:50;102544.16;;;4.67;100.00
54308;BME280;40208;39.778;2.710;2023-02-20T07:17:35;102542.44;;;4.76;100.00
54308;BME280;40208;39.778;2.710;2023-02-20T07:20:20;102550.34;;;4.77;100.00
54308;BME280;40208;39.778;2.710;2023-02-20T07:23:05;102545.94;;;4.73;100.00
54308;BME280;40208;39.778;2.710;2023-02-20T07:25:50;102549.56;;;4.89;100.00
54308;BME280;40208;39.778;2.710;2023-02-20T07:28:34;102546.06;;;4.90;100.00
54308;BME280;40208;39.778;2.710;2023-02-20T07:31:19;102545.22;;;4.94;100.00
54308;BME280;40208;39.778;2.710;2023-02-20T07:34:04;102541.69;;;4.98;100.00
54308;BME280;40208;39.778;2.710;2023-02-20T07:36:50;102550.53;;;5.03;100.00
54308;BME280;40208;39.778;2.710;2023-02-20T07:39:34;102562.00;;;5.16;100.00
54308;BME280;40208;39.778;2.710;2023-02-20T07:42:19;102567.41;;;5.42;100.00
54308;BME280;40208;39.778;2.710;2023-02-20T07:45:04;102556.13;;;5.65;100.00
54308;BME280;40208;39.778;2.710;2023-02-20T07:47:49;102551.84;;;5.94;100.00
54308;BME280;40208;39.778;2.710;2023-02-20T07:50:34;102555.41;;;6.30;100.00
54308;BME280;40208;39.778;2.710;2023-02-20T07:53:19;102551.03;;;6.62;100.00
54308;BME280;40208;39.778;2.710;2023-02-20T07:56:05;102550.13;;;6.95;100.00
54308;BME280;40208;39.778;2.710;2023-02-20T07:58:51;102547.41;;;7.29;100.00
54308;BME280;40208;39.778;2.710;2023-02-20T08:01:36;102546.38;;;7.70;100.00
54308;BME280;40208;39.778;2.710;2023-02-20T08:04:21;102539.09;;;8.12;100.00
54308;BME280;40208;39.778;2.710;2023-02-20T08:07:09;102536.19;;;8.48;100.00
54308;BME280;40208;39.778;2.710;2023-02-20T08:09:58;102542.91;;;8.85;100.00
54308;BME280;40208;39.778;2.710;2023-02-20T08:12:43;102539.03;;;9.21;100.00
54308;BME280;40208;39.778;2.710;2023-02-20T08:15:28;102531.78;;;9.36;100.00
54308;BME280;40208;39.778;2.710;2023-02-20T08:18:13;102530.59;;;9.61;100.00
54308;BME280;40208;39.778;2.710;2023-02-20T08:20:58;102537.16;;;9.96;100.00
54308;BME280;40208;39.778;2.710;2023-02-20T08:23:43;102537.53;;;10.32;100.00
54308;BME280;40208;39.778;2.710;2023-02-20T08:26:28;102530.84;;;10.64;100.00
54308;BME280;40208;39.778;2.710;2023-02-20T08:29:14;102541.00;;;10.90;100.00
54308;BME280;40208;39.778;2.710;2023-02-20T08:31:58;102522.75;;;11.18;100.00
54308;BME280;40208;39.778;2.710;2023-02-20T08:34:43;102533.91;;;11.37;100.00
54308;BME280;40208;39.778;2.710;2023-02-20T08:37:28;102515.88;;;11.51;100.00
54308;BME280;40208;39.778;2.710;2023-02-20T08:40:13;102516.28;;;11.73;100.00
54308;BME280;40208;39.778;2.710;2023-02-20T08:42:58;102515.00;;;11.91;100.00
54308;BME280;40208;39.778;2.710;2023-02-20T08:45:43;102508.59;;;12.00;100.00
54308;BME280;40208;39.778;2.710;2023-02-20T08:48:28;102517.44;;;12.02;100.00
54308;BME280;40208;39.778;2.710;2023-02-20T08:51:16;102517.34;;;12.05;100.00
54308;BME280;40208;39.778;2.710;2023-02-20T08:54:05;102520.91;;;12.05;100.00
54308;BME280;40208;39.778;2.710;2023-02-20T08:56:51;102517.28;;;12.08;100.00
54308;BME280;40208;39.778;2.710;2023-02-20T08:59:39;102520.75;;;12.10;100.00
54308;BME280;40208;39.778;2.710;2023-02-20T09:02:24;102531.31;;;12.15;100.00
54308;BME280;40208;39.778;2.710;2023-02-20T09:05:12;102519.56;;;12.23;100.00
54308;BME280;40208;39.778;2.710;2023-02-20T09:07:57;102526.25;;;12.41;100.00
54308;BME280;40208;39.778;2.710;2023-02-20T09:10:42;102517.88;;;12.55;100.00
54308;BME280;40208;39.778;2.710;2023-02-20T09:13:27;102531.66;;;12.72;100.00
54308;BME280;40208;39.778;2.710;2023-02-20T09:16:13;102522.34;;;12.89;100.00
54308;BME280;40208;39.778;2.710;2023-02-20T09:18:58;102522.13;;;12.97;100.00
54308;BME280;40208;39.778;2.710;2023-02-20T09:21:44;102522.59;;;13.12;100.00
54308;BME280;40208;39.778;2.710;2023-02-20T09:24:29;102523.09;;;13.27;100.00
54308;BME280;40208;39.778;2.710;2023-02-20T09:27:20;102524.44;;;13.43;100.00
54308;BME280;40208;39.778;2.710;2023-02-20T09:30:05;102527.19;;;13.70;100.00
54308;BME280;40208;39.778;2.710;2023-02-20T09:32:52;102519.41;;;13.90;100.00
54308;BME280;40208;39.778;2.710;2023-02-20T09:35:37;102519.72;;;14.09;100.00
54308;BME280;40208;39.778;2.710;2023-02-20T09:38:22;102511.19;;;14.26;100.00
54308;BME280;40208;39.778;2.710;2023-02-20T09:41:12;102515.69;;;14.51;100.00
54308;BME280;40208;39.778;2.710;2023-02-20T09:47:02;102521.66;;;14.86;100.00
54308;BME280;40208;39.778;2.710;2023-02-20T09:49:47;102518.22;;;15.07;100.00
54308;BME280;40208;39.778;2.710;2023-02-20T09:52:33;102509.75;;;15.19;100.00
54308;BME280;40208;39.778;2.710;2023-02-20T09:55:20;102516.28;;;15.36;100.00
54308;BME280;40208;39.778;2.710;2023-02-20T09:58:06;102507.56;;;15.54;100.00
54308;BME280;40208;39.778;2.710;2023-02-20T10:00:55;102512.19;;;15.73;100.00
54308;BME280;40208;39.778;2.710;2023-02-20T10:06:38;102512.06;;;15.99;100.00
54308;BME280;40208;39.778;2.710;2023-02-20T10:09:22;102511.75;;;16.07;100.00
54308;BME280;40208;39.778;2.710;2023-02-20T10:23:52;102486.44;;;17.18;100.00
54308;BME280;40208;39.778;2.710;2023-02-20T10:26:42;102484.78;;;17.53;100.00
54308;BME280;40208;39.778;2.710;2023-02-20T10:29:31;102485.44;;;17.77;100.00
54308;BME280;40208;39.778;2.710;2023-02-20T10:32:20;102482.38;;;18.04;100.00
54308;BME280;40208;39.778;2.710;2023-02-20T10:35:08;102480.97;;;18.32;99.76
54308;BME280;40208;39.778;2.710;2023-02-20T10:37:56;102486.06;;;18.55;98.81
54308;BME280;40208;39.778;2.710;2023-02-20T10:40:45;102480.50;;;18.93;95.21
54308;BME280;40208;39.778;2.710;2023-02-20T10:43:53;102482.34;;;19.26;90.65
54308;BME280;40208;39.778;2.710;2023-02-20T10:46:45;102482.38;;;19.42;91.03
54308;BME280;40208;39.778;2.710;2023-02-20T10:49:35;102484.50;;;19.84;89.24
54308;BME280;40208;39.778;2.710;2023-02-20T10:52:29;102486.75;;;19.76;88.72
54308;BME280;40208;39.778;2.710;2023-02-20T10:55:27;102487.53;;;19.78;90.38
54308;BME280;40208;39.778;2.710;2023-02-20T11:01:05;102484.00;;;19.94;92.58
54308;BME280;40208;39.778;2.710;2023-02-20T11:06:38;102474.75;;;19.98;89.60
54308;BME280;40208;39.778;2.710;2023-02-20T11:09:24;102463.63;;;20.04;90.50
54308;BME280;40208;39.778;2.710;2023-02-20T11:12:21;102465.34;;;20.05;91.10
54308;BME280;40208;39.778;2.710;2023-02-20T11:15:09;102466.56;;;20.15;91.07
54308;BME280;40208;39.778;2.710;2023-02-20T11:17:55;102462.16;;;20.28;89.98
54308;BME280;40208;39.778;2.710;2023-02-20T11:20:41;102462.66;;;20.35;89.37
54308;BME280;40208;39.778;2.710;2023-02-20T11:23:34;102459.34;;;20.46;89.52
54308;BME280;40208;39.778;2.710;2023-02-20T11:29:10;102447.47;;;20.34;90.66
54308;BME280;40208;39.778;2.710;2023-02-20T11:31:58;102436.47;;;20.37;90.78
54308;BME280;40208;39.778;2.710;2023-02-20T11:47:15;102424.84;;;20.81;85.53
54308;BME280;40208;39.778;2.710;2023-02-20T11:50:08;102424.72;;;20.97;84.40
54308;BME280;40208;39.778;2.710;2023-02-20T11:52:54;102430.03;;;21.13;84.95
54308;BME280;40208;39.778;2.710;2023-02-20T11:55:40;102422.13;;;21.24;84.28
54308;BME280;40208;39.778;2.710;2023-02-20T11:58:26;102424.53;;;21.43;79.63
54308;BME280;40208;39.778;2.710;2023-02-20T12:01:31;102430.38;;;21.35;81.64
54308;BME280;40208;39.778;2.710;2023-02-20T12:04:17;102429.53;;;21.35;78.89
54308;BME280;40208;39.778;2.710;2023-02-20T12:07:18;102425.41;;;21.15;80.75
54308;BME280;40208;39.778;2.710;2023-02-20T12:10:12;102428.69;;;21.06;80.24
54308;BME280;40208;39.778;2.710;2023-02-20T12:12:59;102433.81;;;20.82;80.12
54308;BME280;40208;39.778;2.710;2023-02-20T12:15:54;102425.22;;;21.04;80.93
54308;BME280;40208;39.778;2.710;2023-02-20T12:21:51;102416.72;;;21.24;81.43
54308;BME280;40208;39.778;2.710;2023-02-20T12:27:39;102413.34;;;21.21;79.65
54308;BME280;40208;39.778;2.710;2023-02-20T12:42:08;102395.03;;;21.11;81.42
54308;BME280;40208;39.778;2.710;2023-02-20T12:47:47;102384.44;;;21.08;81.20
54308;BME280;40208;39.778;2.710;2023-02-20T12:53:45;102376.59;;;21.18;81.48
54308;BME280;40208;39.778;2.710;2023-02-20T13:05:08;102365.13;;;21.43;81.50
54308;BME280;40208;39.778;2.710;2023-02-20T13:07:56;102359.03;;;21.67;75.69
54308;BME280;40208;39.778;2.710;2023-02-20T13:10:52;102351.56;;;21.57;75.71
54308;BME280;40208;39.778;2.710;2023-02-20T13:25:46;102325.47;;;21.56;75.73
54308;BME280;40208;39.778;2.710;2023-02-20T13:28:37;102330.63;;;21.47;76.33
54308;BME280;40208;39.778;2.710;2023-02-20T13:37:04;102322.47;;;21.34;77.53
54308;BME280;40208;39.778;2.710;2023-02-20T13:39:49;102318.78;;;21.35;78.27
54308;BME280;40208;39.778;2.710;2023-02-20T13:42:34;102317.47;;;21.28;79.87
54308;BME280;40208;39.778;2.710;2023-02-20T13:45:38;102305.75;;;21.14;81.32
54308;BME280;40208;39.778;2.710;2023-02-20T13:54:14;102309.06;;;21.05;81.41
54308;BME280;40208;39.778;2.710;2023-02-20T13:57:10;102300.56;;;20.97;81.91
54308;BME280;40208;39.778;2.710;2023-02-20T13:59:57;102294.88;;;21.02;78.70
54308;BME280;40208;39.778;2.710;2023-02-20T14:02:41;102295.94;;;20.99;80.03
54308;BME280;40208;39.778;2.710;2023-02-20T14:05:27;102284.06;;;21.02;80.83
54308;BME280;40208;39.778;2.710;2023-02-20T14:08:17;102281.94;;;21.07;81.47
54308;BME280;40208;39.778;2.710;2023-02-20T14:11:06;102282.91;;;21.06;80.07
54308;BME280;40208;39.778;2.710;2023-02-20T14:13:51;102280.56;;;21.14;80.46
54308;BME280;40208;39.778;2.710;2023-02-20T14:16:37;102274.44;;;21.12;81.44
54308;BME280;40208;39.778;2.710;2023-02-20T14:19:27;102276.09;;;21.00;80.85
54308;BME280;40208;39.778;2.710;2023-02-20T14:22:14;102273.22;;;20.89;82.17
54308;BME280;40208;39.778;2.710;2023-02-20T14:28:04;102267.44;;;20.52;85.67
54308;BME280;40208;39.778;2.710;2023-02-20T14:31:04;102266.31;;;20.42;87.55
54308;BME280;40208;39.778;2.710;2023-02-20T14:33:50;102258.59;;;20.36;87.58
54308;BME280;40208;39.778;2.710;2023-02-20T14:36:44;102256.66;;;20.38;86.34
54308;BME280;40208;39.778;2.710;2023-02-20T14:42:19;102246.09;;;20.20;86.24
54308;BME280;40208;39.778;2.710;2023-02-20T14:45:05;102245.88;;;20.09;89.04
54308;BME280;40208;39.778;2.710;2023-02-20T14:47:52;102249.34;;;19.97;89.12
54308;BME280;40208;39.778;2.710;2023-02-20T14:50:37;102245.00;;;19.94;86.93
54308;BME280;40208;39.778;2.710;2023-02-20T14:53:21;102242.22;;;19.96;89.05
54308;BME280;40208;39.778;2.710;2023-02-20T14:56:10;102235.66;;;20.00;88.75
54308;BME280;40208;39.778;2.710;2023-02-20T14:58:55;102240.28;;;19.98;89.15
54308;BME280;40208;39.778;2.710;2023-02-20T15:01:39;102233.53;;;19.90;89.56
54308;BME280;40208;39.778;2.710;2023-02-20T15:04:24;102236.13;;;19.78;92.34
54308;BME280;40208;39.778;2.710;2023-02-20T15:07:10;102232.16;;;19.69;93.62
54308;BME280;40208;39.778;2.710;2023-02-20T15:09:56;102231.72;;;19.61;93.71
54308;BME280;40208;39.778;2.710;2023-02-20T15:12:41;102229.66;;;19.50;93.98
54308;BME280;40208;39.778;2.710;2023-02-20T15:15:26;102231.88;;;19.43;95.12
54308;BME280;40208;39.778;2.710;2023-02-20T15:21:37;102232.84;;;19.26;97.65
54308;BME280;40208;39.778;2.710;2023-02-20T15:27:10;102223.91;;;19.26;97.66
54308;BME280;40208;39.778;2.710;2023-02-20T15:32:55;102223.66;;;19.15;99.66
54308;BME280;40208;39.778;2.710;2023-02-20T15:35:41;102221.16;;;19.12;100.00
54308;BME280;40208;39.778;2.710;2023-02-20T15:38:28;102224.97;;;19.07;100.00
54308;BME280;40208;39.778;2.710;2023-02-20T15:41:13;102222.66;;;19.01;100.00
54308;BME280;40208;39.778;2.710;2023-02-20T15:43:57;102220.91;;;19.00;100.00
54308;BME280;40208;39.778;2.710;2023-02-20T15:46:42;102220.31;;;18.95;100.00
54308;BME280;40208;39.778;2.710;2023-02-20T15:49:33;102218.06;;;18.88;100.00
54308;BME280;40208;39.778;2.710;2023-02-20T15:52:18;102214.31;;;18.74;100.00
54308;BME280;40208;39.778;2.710;2023-02-20T15:55:03;102217.16;;;18.71;100.00
54308;BME280;40208;39.778;2.710;2023-02-20T15:57:48;102216.66;;;18.64;100.00
54308;BME280;40208;39.778;2.710;2023-02-20T16:00:33;102214.41;;;18.57;100.00
54308;BME280;40208;39.778;2.710;2023-02-20T16:03:17;102202.69;;;18.42;100.00
54308;BME280;40208;39.778;2.710;2023-02-20T16:06:02;102204.13;;;18.32;100.00
54308;BME280;40208;39.778;2.710;2023-02-20T16:08:47;102207.09;;;18.27;100.00
54308;BME280;40208;39.778;2.710;2023-02-20T16:11:38;102204.66;;;18.22;100.00
54308;BME280;40208;39.778;2.710;2023-02-20T16:14:23;102204.13;;;18.16;100.00
54308;BME280;40208;39.778;2.710;2023-02-20T16:17:09;102210.84;;;18.07;100.00
54308;BME280;40208;39.778;2.710;2023-02-20T16:19:56;102203.91;;;18.03;100.00
54308;BME280;40208;39.778;2.710;2023-02-20T16:22:41;102199.50;;;18.02;100.00
54308;BME280;40208;39.778;2.710;2023-02-20T16:25:25;102205.97;;;17.98;100.00
54308;BME280;40208;39.778;2.710;2023-02-20T16:28:10;102200.78;;;17.95;100.00
54308;BME280;40208;39.778;2.710;2023-02-20T16:30:55;102197.53;;;17.88;100.00
54308;BME280;40208;39.778;2.710;2023-02-20T16:33:40;102191.31;;;17.88;100.00
54308;BME280;40208;39.778;2.710;2023-02-20T16:36:24;102185.31;;;17.83;100.00
54308;BME280;40208;39.778;2.710;2023-02-20T16:39:08;102183.69;;;17.78;100.00
54308;BME280;40208;39.778;2.710;2023-02-20T16:41:54;102181.09;;;17.77;100.00
54308;BME280;40208;39.778;2.710;2023-02-20T16:44:42;102176.59;;;17.77;100.00
54308;BME280;40208;39.778;2.710;2023-02-20T16:47:28;102167.22;;;17.69;100.00
54308;BME280;40208;39.778;2.710;2023-02-20T16:50:15;102175.50;;;17.64;100.00
54308;BME280;40208;39.778;2.710;2023-02-20T16:53:02;102176.94;;;17.54;100.00
54308;BME280;40208;39.778;2.710;2023-02-20T16:55:49;102176.56;;;17.44;100.00
54308;BME280;40208;39.778;2.710;2023-02-20T16:58:35;102183.31;;;17.34;100.00
54308;BME280;40208;39.778;2.710;2023-02-20T17:01:19;102176.47;;;17.28;100.00
54308;BME280;40208;39.778;2.710;2023-02-20T17:04:06;102168.66;;;17.24;100.00
54308;BME280;40208;39.778;2.710;2023-02-20T17:06:53;102185.94;;;17.18;100.00
54308;BME280;40208;39.778;2.710;2023-02-20T17:09:37;102189.53;;;17.00;100.00
54308;BME280;40208;39.778;2.710;2023-02-20T17:12:23;102185.88;;;16.83;100.00
54308;BME280;40208;39.778;2.710;2023-02-20T17:15:08;102175.94;;;16.85;100.00
54308;BME280;40208;39.778;2.710;2023-02-20T17:17:53;102178.63;;;16.85;100.00
54308;BME280;40208;39.778;2.710;2023-02-20T17:20:38;102179.97;;;16.75;100.00
54308;BME280;40208;39.778;2.710;2023-02-20T17:23:23;102179.13;;;16.56;100.00
54308;BME280;40208;39.778;2.710;2023-02-20T17:26:08;102177.25;;;16.58;100.00
54308;BME280;40208;39.778;2.710;2023-02-20T17:28:53;102177.78;;;16.47;100.00
54308;BME280;40208;39.778;2.710;2023-02-20T17:31:37;102180.31;;;16.31;100.00
54308;BME280;40208;39.778;2.710;2023-02-20T17:34:23;102184.50;;;16.37;100.00
54308;BME280;40208;39.778;2.710;2023-02-20T17:37:08;102186.47;;;16.33;100.00
54308;BME280;40208;39.778;2.710;2023-02-20T17:39:52;102186.25;;;16.19;100.00
54308;BME280;40208;39.778;2.710;2023-02-20T17:42:37;102188.13;;;16.17;100.00
54308;BME280;40208;39.778;2.710;2023-02-20T17:45:22;102188.53;;;16.07;100.00
54308;BME280;40208;39.778;2.710;2023-02-20T17:48:07;102196.06;;;15.99;100.00
54308;BME280;40208;39.778;2.710;2023-02-20T17:50:51;102204.22;;;15.55;100.00
54308;BME280;40208;39.778;2.710;2023-02-20T17:53:36;102204.47;;;15.49;100.00
54308;BME280;40208;39.778;2.710;2023-02-20T17:56:20;102208.47;;;15.39;100.00
54308;BME280;40208;39.778;2.710;2023-02-20T17:59:05;102218.84;;;15.26;100.00
54308;BME280;40208;39.778;2.710;2023-02-20T18:01:52;102221.50;;;15.04;100.00
54308;BME280;40208;39.778;2.710;2023-02-20T18:04:36;102233.66;;;14.91;100.00
54308;BME280;40208;39.778;2.710;2023-02-20T18:07:21;102241.91;;;14.84;100.00
54308;BME280;40208;39.778;2.710;2023-02-20T18:10:06;102238.03;;;14.92;100.00
54308;BME280;40208;39.778;2.710;2023-02-20T18:12:50;102243.59;;;14.63;100.00
54308;BME280;40208;39.778;2.710;2023-02-20T18:16:01;102251.78;;;14.59;100.00
54308;BME280;40208;39.778;2.710;2023-02-20T18:18:45;102246.84;;;14.25;100.00
54308;BME280;40208;39.778;2.710;2023-02-20T18:21:30;102248.97;;;14.15;100.00
54308;BME280;40208;39.778;2.710;2023-02-20T18:24:15;102253.25;;;13.95;100.00
54308;BME280;40208;39.778;2.710;2023-02-20T18:27:00;102265.28;;;13.82;100.00
54308;BME280;40208;39.778;2.710;2023-02-20T18:29:45;102254.50;;;13.58;100.00
54308;BME280;40208;39.778;2.710;2023-02-20T18:32:30;102255.97;;;13.42;100.00
54308;BME280;40208;39.778;2.710;2023-02-20T18:35:17;102258.22;;;13.28;100.00
54308;BME280;40208;39.778;2.710;2023-02-20T18:38:01;102258.84;;;13.08;100.00
54308;BME280;40208;39.778;2.710;2023-02-20T18:40:46;102257.50;;;12.93;100.00
54308;BME280;40208;39.778;2.710;2023-02-20T18:43:31;102255.63;;;12.97;100.00
54308;BME280;40208;39.778;2.710;2023-02-20T18:46:26;102262.09;;;12.88;100.00